»·PEaware :: QXE2303 KSEA-KPDX

QXE2303 :: KSEA-KPDX

FLIGHT INFORMATION

Flight Status: Arrived
Operator:
Horizon Air
More flights by this operator :: More flights under this callsign
Pilot: Doug L. (8712)
Aircraft: DEHAVILLAND DASH 8 400
(DH8D)
More flights by this aircraft type
Origin: KSEA Seattle-Tacoma Intl
United States
Destination: KPDX Portland Intl
United States
More flights between these airports :: More routes between these airports
Route: +SEA BUWZO KRATR2
File this flight plan on PilotEdge
Remarks:
Altitude:
(Current/Filed)
17,000ft
Speed:
(Current/Filed)
300kts
Departed: 04-Jan-19 08:36 PM
Arrived: 04-Jan-19 09:08 PM
Distance/Time
Traveled:
112nm/0:32
Distance/Time
To Go:
Arrived

Flight Plot

Page will automatically refresh every two minutes.


Map Options




Map Legend


Flown Route
Filed Route
Departure Airport
Arrival Airport
Navaid (VOR, NDB)
Fix

Horizontal Profiles

Position Reports

Time Latitude Longitude Heading Altitude Ground
Speed
04-Jan-19 20:22 47.443733 -122.304400 358 440ft 0kts
04-Jan-19 20:23 47.443733 -122.304400 358 440ft 0kts
04-Jan-19 20:24 47.443733 -122.304400 358 440ft 0kts
04-Jan-19 20:25 47.443733 -122.304400 358 440ft 0kts
04-Jan-19 20:26 47.443661 -122.304398 355 440ft 2kts
04-Jan-19 20:27 47.443518 -122.303930 234 440ft 0kts
04-Jan-19 20:28 47.443518 -122.303930 234 440ft 0kts
04-Jan-19 20:29 47.443238 -122.304776 265 440ft 0kts
04-Jan-19 20:30 47.443623 -122.305878 323 440ft 15kts
04-Jan-19 20:31 47.449415 -122.306290 0 440ft 26kts
04-Jan-19 20:32 47.454937 -122.306218 0 440ft 23kts
04-Jan-19 20:33 47.461809 -122.306183 1 440ft 18kts
04-Jan-19 20:34 47.463789 -122.307099 252 440ft 11kts
04-Jan-19 20:35 47.445241 -122.307945 178 916ft 134kts
04-Jan-19 20:36 47.399795 -122.312392 182 3301ft 174kts
04-Jan-19 20:37 47.351823 -122.314139 179 6480ft 168kts
04-Jan-19 20:38 47.307031 -122.312716 182 9615ft 158kts
04-Jan-19 20:39 47.261788 -122.310802 186 11978ft 166kts
04-Jan-19 20:40 47.214739 -122.309663 188 13940ft 170kts
04-Jan-19 20:41 47.166314 -122.309570 186 15754ft 175kts
04-Jan-19 20:42 47.114691 -122.309668 188 16988ft 210kts
04-Jan-19 20:43 47.047086 -122.310873 185 16991ft 275kts
04-Jan-19 20:44 46.966312 -122.310081 185 17013ft 307kts
04-Jan-19 20:45 46.878362 -122.308868 184 16981ft 322kts
04-Jan-19 20:46 46.788793 -122.309612 185 16974ft 327kts
04-Jan-19 20:47 46.698198 -122.309831 184 17002ft 329kts
04-Jan-19 20:48 46.608671 -122.309684 184 16987ft 315kts
04-Jan-19 20:49 46.522446 -122.309547 184 16988ft 309kts
04-Jan-19 20:50 46.437489 -122.309577 184 16987ft 306kts
04-Jan-19 20:51 46.353936 -122.309720 184 16977ft 303kts
04-Jan-19 20:52 46.271278 -122.309891 187 17013ft 294kts
04-Jan-19 20:53 46.200028 -122.341965 204 14464ft 262kts
04-Jan-19 20:54 46.134508 -122.378293 203 11461ft 249kts
04-Jan-19 20:55 46.072539 -122.412629 201 9702ft 236kts
04-Jan-19 20:56 46.010166 -122.446165 201 8757ft 252kts
04-Jan-19 20:57 45.945059 -122.480422 194 7756ft 230kts
04-Jan-19 20:58 45.883758 -122.473068 170 6504ft 246kts
04-Jan-19 20:59 45.819239 -122.453449 168 6009ft 231kts
04-Jan-19 21:00 45.760713 -122.434332 168 5994ft 212kts
04-Jan-19 21:01 45.705251 -122.422949 182 5012ft 216kts
04-Jan-19 21:02 45.645996 -122.439940 199 3158ft 216kts
04-Jan-19 21:03 45.597659 -122.473053 208 2025ft 169kts
04-Jan-19 21:05 45.569012 -122.554080 298 547ft 126kts
04-Jan-19 21:05 45.569012 -122.554080 298 547ft 126kts
04-Jan-19 21:06 45.585479 -122.596603 299 38ft 87kts
04-Jan-19 21:07 45.588686 -122.602293 24 37ft 0kts
04-Jan-19 21:08 45.588689 -122.602292 24 37ft 0kts
04-Jan-19 21:09 45.588370 -122.598750 119 37ft 20kts
04-Jan-19 21:10 45.585876 -122.593037 128 37ft 0kts
04-Jan-19 21:11 45.585590 -122.591893 59 37ft 3kts
04-Jan-19 21:12 45.585665 -122.591655 68 37ft 0kts

Navigation Log

Ident Type
Flight plan parsing failed, navigation log unavailable